One Hundred Palms, California
Current Conditions -  °F | °C
As of 8:56 AM on Friday 24 Oct 2014 (Local Time) from KNJK Reporting Station
Clear Clear  
Wind Chill: 23°   Ceiling: Unl
Heat Index: 23°   Visibility: 10mi
Dew Point:   Wind: 3mph
Humidity: 34%   Direction: 260°W
Pressure: 29.98"   Gusts: NA
Location:  33.093°N, 116.06°W
Report Text: KNJK 241556Z 26003KT 10SM CLR 23/07 A2998 RMK AO2 SLP166 T02330067 $
Loading
Personal Weather Stations






























Interactive Weather Map
Tropical Storm Tracking
New forecast layout! Learn more

10-Day Weather Forecast

Advertisements
Track Severe Weather on mobile